createdAt,value
2022-08-03T00:02:05.875Z,18.51
2022-08-03T00:06:16.135Z,18.43
2022-08-03T00:10:23.607Z,18.37
2022-08-03T00:14:31.309Z,18.32
2022-08-03T00:18:39.272Z,18.25
2022-08-03T00:22:46.707Z,18.17
2022-08-03T00:26:54.187Z,18.07
2022-08-03T00:31:02.084Z,18.00
2022-08-03T00:35:24.141Z,17.96
2022-08-03T00:39:41.031Z,17.89
2022-08-03T00:43:49.457Z,17.78
2022-08-03T00:47:57.476Z,17.71
2022-08-03T00:52:09.516Z,17.68
2022-08-03T00:56:18.428Z,17.63
2022-08-03T01:00:27.693Z,17.57
2022-08-03T01:04:35.664Z,17.51
2022-08-03T01:08:49.249Z,17.46
2022-08-03T01:13:02.595Z,17.40
2022-08-03T01:17:16.669Z,17.34
2022-08-03T01:21:40.273Z,17.30
2022-08-03T01:26:01.170Z,17.22
2022-08-03T01:30:11.281Z,17.17
2022-08-03T01:34:21.359Z,17.13
2022-08-03T01:38:33.703Z,17.07
2022-08-03T01:42:43.421Z,17.02
2022-08-03T01:46:52.353Z,17.01
2022-08-03T01:51:00.978Z,16.99
2022-08-03T01:55:10.629Z,16.92
2022-08-03T01:59:21.388Z,16.84
2022-08-03T02:03:29.778Z,16.77
2022-08-03T02:07:37.929Z,16.70
2022-08-03T02:11:46.962Z,16.65
2022-08-03T02:15:55.785Z,16.63
2022-08-03T02:20:07.059Z,16.61
2022-08-03T02:24:15.224Z,16.59
2022-08-03T02:28:23.972Z,16.49
2022-08-03T02:32:35.560Z,16.39
2022-08-03T02:36:44.590Z,16.32
2022-08-03T02:40:52.959Z,16.23
2022-08-03T02:45:03.898Z,16.16
2022-08-03T02:49:41.037Z,16.15
2022-08-03T02:53:42.184Z,16.21
2022-08-03T02:57:51.062Z,16.24
2022-08-03T03:02:00.624Z,16.24
2022-08-03T03:06:09.401Z,16.30
2022-08-03T03:10:17.217Z,16.36
2022-08-03T03:14:33.959Z,16.39
2022-08-03T03:18:42.881Z,16.42
2022-08-03T03:22:51.568Z,16.40
2022-08-03T03:26:59.754Z,16.41
2022-08-03T03:31:08.522Z,16.42
2022-08-03T03:35:17.386Z,16.42
2022-08-03T03:39:25.368Z,16.46
2022-08-03T03:43:32.980Z,16.51
2022-08-03T03:47:40.837Z,16.55
2022-08-03T03:51:48.450Z,16.56
2022-08-03T03:56:02.208Z,16.61
2022-08-03T04:00:13.382Z,16.66
2022-08-03T04:04:38.569Z,16.67
2022-08-03T04:09:15.365Z,16.68
2022-08-03T04:13:24.640Z,16.70
2022-08-03T04:17:34.150Z,16.72
2022-08-03T04:21:45.166Z,16.71
2022-08-03T04:25:54.395Z,16.72
2022-08-03T04:30:02.626Z,16.73
2022-08-03T04:34:10.936Z,16.75
2022-08-03T04:38:20.368Z,16.78
2022-08-03T04:42:29.280Z,16.83
2022-08-03T04:46:40.624Z,16.85
2022-08-03T04:50:58.412Z,16.84
2022-08-03T04:55:06.976Z,16.90
2022-08-03T04:59:14.792Z,16.99
2022-08-03T05:03:25.000Z,17.07
2022-08-03T05:07:36.302Z,17.14
2022-08-03T05:11:44.297Z,17.24
2022-08-03T05:15:53.119Z,17.35
2022-08-03T05:20:00.807Z,17.50
2022-08-03T05:24:10.173Z,17.70
2022-08-03T05:28:17.916Z,18.00
2022-08-03T05:32:25.501Z,18.34
2022-08-03T05:36:33.428Z,18.66
2022-08-03T05:40:56.669Z,18.95
2022-08-03T05:45:16.302Z,19.23
2022-08-03T05:49:28.726Z,19.54
2022-08-03T05:53:39.893Z,19.83
2022-08-03T05:57:59.906Z,20.14
2022-08-03T06:02:08.237Z,20.41
2022-08-03T06:06:19.934Z,20.65
2022-08-03T06:10:36.449Z,20.94
2022-08-03T06:14:47.666Z,21.23
2022-08-03T06:18:59.195Z,21.49
2022-08-03T06:23:17.779Z,21.74
2022-08-03T06:27:37.298Z,21.99
2022-08-03T06:31:49.582Z,22.21
2022-08-03T06:36:00.723Z,22.45
2022-08-03T06:40:15.259Z,22.70
2022-08-03T06:44:29.645Z,22.97
2022-08-03T06:48:39.546Z,23.17
2022-08-03T06:52:46.875Z,23.46
2022-08-03T06:57:02.766Z,23.73
2022-08-03T07:01:10.440Z,23.97
2022-08-03T07:05:25.149Z,24.20
2022-08-03T07:09:36.562Z,24.41
2022-08-03T07:13:48.103Z,24.63
2022-08-03T07:17:59.874Z,24.85
2022-08-03T07:22:18.252Z,25.05
2022-08-03T07:26:29.452Z,25.25
2022-08-03T07:30:42.451Z,25.47
2022-08-03T07:34:49.961Z,25.73
2022-08-03T07:39:17.362Z,25.92
2022-08-03T07:43:28.185Z,26.12
2022-08-03T07:47:43.185Z,26.29
2022-08-03T07:52:22.070Z,26.42
2022-08-03T07:56:38.906Z,26.50
2022-08-03T08:00:47.711Z,26.54
2022-08-03T08:04:55.122Z,26.61
2022-08-03T08:09:02.414Z,26.71
2022-08-03T08:13:10.232Z,26.78
2022-08-03T08:17:18.123Z,26.89
2022-08-03T08:21:26.540Z,26.96
2022-08-03T08:25:56.563Z,27.03
2022-08-03T08:30:12.256Z,27.12
2022-08-03T08:34:20.103Z,27.23
2022-08-03T08:38:29.512Z,27.33
2022-08-03T08:42:36.933Z,27.38
2022-08-03T08:46:44.858Z,27.46
2022-08-03T08:50:55.816Z,27.54
2022-08-03T08:55:05.238Z,27.65
2022-08-03T08:59:48.381Z,27.76
2022-08-03T09:03:59.071Z,27.85
2022-08-03T09:08:08.864Z,27.93
2022-08-03T09:12:39.183Z,28.02
2022-08-03T09:17:02.260Z,28.08
2022-08-03T09:21:32.956Z,28.19
2022-08-03T09:25:43.953Z,28.33
2022-08-03T09:29:53.086Z,28.44
2022-08-03T09:34:02.476Z,28.54
2022-08-03T09:38:15.484Z,28.63
2022-08-03T09:42:27.654Z,28.70
2022-08-03T09:46:40.985Z,28.74
2022-08-03T09:51:12.749Z,28.84
2022-08-03T09:56:33.783Z,28.94
2022-08-03T10:00:03.058Z,29.02
2022-08-03T10:04:17.428Z,29.05
2022-08-03T10:08:26.621Z,29.05
2022-08-03T10:12:34.429Z,29.11
2022-08-03T10:16:43.515Z,29.17
2022-08-03T10:20:53.653Z,29.19
2022-08-03T10:25:04.726Z,29.23
2022-08-03T10:29:16.770Z,29.34
2022-08-03T10:33:49.652Z,29.48
2022-08-03T10:38:01.211Z,29.56
2022-08-03T10:42:13.513Z,29.56
2022-08-03T10:46:24.530Z,29.63
2022-08-03T10:50:32.099Z,29.76
2022-08-03T10:55:03.474Z,29.94
2022-08-03T10:59:27.418Z,30.15
2022-08-03T11:03:36.374Z,30.36
2022-08-03T11:07:44.236Z,30.45
2022-08-03T11:12:29.867Z,30.56
2022-08-03T11:16:42.287Z,30.60
2022-08-03T11:20:54.663Z,30.64
2022-08-03T11:25:04.909Z,30.64
2022-08-03T11:29:31.840Z,30.75
2022-08-03T11:33:40.973Z,30.82
2022-08-03T11:38:07.307Z,30.90
2022-08-03T11:42:41.914Z,31.03
2022-08-03T11:46:49.665Z,31.04
2022-08-03T11:51:00.104Z,31.02
2022-08-03T11:55:12.534Z,31.08
2022-08-03T11:59:22.340Z,31.09
2022-08-03T12:03:35.542Z,30.80
2022-08-03T12:08:03.476Z,30.50
2022-08-03T12:12:12.372Z,30.60
2022-08-03T12:16:25.681Z,30.84
2022-08-03T12:20:35.520Z,31.07
2022-08-03T12:24:47.637Z,31.15
2022-08-03T12:28:55.751Z,31.30
2022-08-03T12:33:03.308Z,31.52
2022-08-03T12:37:22.293Z,31.67
2022-08-03T12:41:36.137Z,31.85
2022-08-03T12:45:45.304Z,31.93
2022-08-03T12:49:54.322Z,31.79
2022-08-03T12:54:03.679Z,31.90
2022-08-03T12:58:14.750Z,31.97
2022-08-03T13:02:27.961Z,31.81
2022-08-03T13:06:35.748Z,31.95
2022-08-03T13:10:44.621Z,32.21
2022-08-03T13:14:54.719Z,32.44
2022-08-03T13:19:03.068Z,32.40
2022-08-03T13:23:12.992Z,32.23
2022-08-03T13:28:03.679Z,32.06
2022-08-03T13:31:59.553Z,32.13
2022-08-03T13:36:12.217Z,32.51
2022-08-03T13:40:23.599Z,32.72
2022-08-03T13:44:31.441Z,32.79
2022-08-03T13:48:39.311Z,32.87
2022-08-03T13:52:48.224Z,33.02
2022-08-03T13:57:00.680Z,33.25
2022-08-03T14:01:53.526Z,33.40
2022-08-03T14:05:54.808Z,33.44
2022-08-03T14:10:03.413Z,33.50
2022-08-03T14:14:10.720Z,33.56
2022-08-03T14:18:29.253Z,33.60
2022-08-03T14:22:43.173Z,33.68
2022-08-03T14:26:50.760Z,33.80
2022-08-03T14:30:59.706Z,33.70
2022-08-03T14:35:09.141Z,33.85
2022-08-03T14:39:17.501Z,33.89
2022-08-03T14:43:25.140Z,33.77
2022-08-03T14:48:23.371Z,33.75
2022-08-03T14:52:04.074Z,33.75
2022-08-03T14:56:11.450Z,33.67
2022-08-03T15:00:19.866Z,33.65
2022-08-03T15:04:27.241Z,33.73
2022-08-03T15:08:34.710Z,33.53
2022-08-03T15:12:42.052Z,33.45
2022-08-03T15:16:49.878Z,33.31
2022-08-03T15:20:57.556Z,33.16
2022-08-03T15:26:04.056Z,33.24
2022-08-03T15:30:04.967Z,33.15
2022-08-03T15:34:03.279Z,32.99
2022-08-03T15:38:11.120Z,32.89
2022-08-03T15:42:18.971Z,32.80
2022-08-03T15:46:29.745Z,32.69
2022-08-03T15:50:38.114Z,32.49
2022-08-03T15:54:45.949Z,32.29
2022-08-03T15:59:03.154Z,32.16
2022-08-03T16:03:21.362Z,32.10
2022-08-03T16:08:03.459Z,32.03
2022-08-03T16:12:16.154Z,31.99
2022-08-03T16:16:24.554Z,31.96
2022-08-03T16:20:35.023Z,31.89
2022-08-03T16:24:43.520Z,31.84
2022-08-03T16:28:51.212Z,31.77
2022-08-03T16:32:58.532Z,31.70
2022-08-03T16:37:28.485Z,31.54
2022-08-03T16:41:53.976Z,31.45
2022-08-03T16:46:05.012Z,31.42
2022-08-03T16:50:19.507Z,31.38
2022-08-03T16:54:27.962Z,31.32
2022-08-03T16:58:42.404Z,31.28
2022-08-03T17:02:54.824Z,31.23
2022-08-03T17:07:04.805Z,31.19
2022-08-03T17:11:12.748Z,31.15
2022-08-03T17:15:37.987Z,31.06
2022-08-03T17:19:55.168Z,30.99
2022-08-03T17:24:12.047Z,30.90
2022-08-03T17:28:49.199Z,30.83
2022-08-03T17:32:56.646Z,30.72
2022-08-03T17:37:06.214Z,30.58
2022-08-03T17:41:14.711Z,30.40
2022-08-03T17:45:24.115Z,30.23
2022-08-03T17:49:52.512Z,30.08
2022-08-03T17:54:18.137Z,29.95
2022-08-03T17:58:34.841Z,29.77
2022-08-03T18:03:06.297Z,29.62
2022-08-03T18:07:19.860Z,29.43
2022-08-03T18:11:35.638Z,29.24
2022-08-03T18:15:48.728Z,29.02
2022-08-03T18:20:03.427Z,28.80
2022-08-03T18:24:13.989Z,28.60
2022-08-03T18:28:23.497Z,28.39
2022-08-03T18:32:31.249Z,28.19
2022-08-03T18:36:41.107Z,27.99
2022-08-03T18:40:49.588Z,27.78
2022-08-03T18:44:57.672Z,27.61
2022-08-03T18:49:14.341Z,27.46
2022-08-03T18:54:02.632Z,27.31
2022-08-03T18:58:17.515Z,27.16
2022-08-03T19:02:34.491Z,27.02
2022-08-03T19:06:47.371Z,26.85
2022-08-03T19:11:00.833Z,26.73
2022-08-03T19:15:12.596Z,26.62
2022-08-03T19:19:22.769Z,26.50
2022-08-03T19:23:34.074Z,26.35
2022-08-03T19:27:43.451Z,26.21
2022-08-03T19:31:57.955Z,26.05
2022-08-03T19:36:10.673Z,25.93
2022-08-03T19:40:19.845Z,25.80
2022-08-03T19:44:32.495Z,25.69
2022-08-03T19:48:44.741Z,25.58
2022-08-03T19:52:53.201Z,25.48
2022-08-03T19:57:02.042Z,25.36
2022-08-03T20:01:21.243Z,25.24
2022-08-03T20:05:29.563Z,25.14
2022-08-03T20:09:56.470Z,25.04
2022-08-03T20:14:05.371Z,24.93
2022-08-03T20:22:48.250Z,24.78
2022-08-03T20:26:57.914Z,24.69
2022-08-03T20:31:05.578Z,24.61
2022-08-03T20:35:14.225Z,24.55
2022-08-03T20:39:21.948Z,24.47
2022-08-03T20:43:30.169Z,24.40
2022-08-03T20:47:50.254Z,24.34
2022-08-03T20:51:58.514Z,24.30
2022-08-03T20:56:11.327Z,24.25
2022-08-03T21:00:22.638Z,24.19
2022-08-03T21:04:30.455Z,24.12
2022-08-03T21:08:46.937Z,24.04
2022-08-03T21:13:03.878Z,24.85
2022-08-03T21:13:15.178Z,23.96
2022-08-03T21:17:40.004Z,23.89
2022-08-03T21:21:50.965Z,23.83
2022-08-03T21:25:59.949Z,23.76
2022-08-03T21:30:10.754Z,23.67
2022-08-03T21:34:18.260Z,23.58
2022-08-03T21:38:30.183Z,23.50
2022-08-03T21:42:38.135Z,23.41
2022-08-03T21:46:45.879Z,23.33
2022-08-03T21:50:54.015Z,23.23
2022-08-03T21:55:04.818Z,23.13
2022-08-03T21:59:17.228Z,23.05
2022-08-03T22:03:27.881Z,22.95
2022-08-03T22:07:36.835Z,22.89
2022-08-03T22:11:44.611Z,22.81
2022-08-03T22:15:52.546Z,22.74
2022-08-03T22:19:59.916Z,22.66
2022-08-03T22:24:09.481Z,22.59
2022-08-03T22:28:17.624Z,22.53
2022-08-03T22:32:25.033Z,22.47
2022-08-03T22:36:33.575Z,22.41
2022-08-03T22:40:42.107Z,22.36
2022-08-03T22:44:50.519Z,22.30
2022-08-03T22:48:58.613Z,22.24
2022-08-03T22:53:06.528Z,22.19
2022-08-03T22:57:14.442Z,22.14
2022-08-03T23:01:26.543Z,22.09
2022-08-03T23:06:00.955Z,22.04
2022-08-03T23:10:06.761Z,21.97
2022-08-03T23:14:16.597Z,21.93
2022-08-03T23:18:26.363Z,21.90
2022-08-03T23:22:36.451Z,21.87
2022-08-03T23:26:44.540Z,21.86
2022-08-03T23:30:52.712Z,21.84
2022-08-03T23:35:20.335Z,21.82
2022-08-03T23:39:29.228Z,21.83
2022-08-03T23:43:50.974Z,21.83
2022-08-03T23:47:59.941Z,21.84
2022-08-03T23:52:14.847Z,21.82
2022-08-03T23:56:29.565Z,21.80
